createdAt,value
2019-04-28T00:00:18.582Z,12.63
2019-04-28T00:02:50.793Z,12.00
2019-04-28T00:05:23.204Z,7.83
2019-04-28T00:07:54.242Z,10.82
2019-04-28T00:10:25.428Z,12.57
2019-04-28T00:12:56.375Z,19.27
2019-04-28T00:15:27.401Z,11.10
2019-04-28T00:17:59.497Z,11.77
2019-04-28T00:20:52.211Z,10.30
2019-04-28T00:23:32.673Z,8.67
2019-04-28T00:26:14.667Z,8.93
2019-04-28T00:28:45.603Z,9.23
2019-04-28T00:31:17.879Z,10.43
2019-04-28T00:33:51.134Z,12.23
2019-04-28T00:36:21.937Z,10.93
2019-04-28T00:38:54.626Z,13.18
2019-04-28T00:41:26.393Z,13.83
2019-04-28T00:43:57.684Z,12.00
2019-04-28T00:46:33.109Z,15.80
2019-04-28T00:49:04.185Z,14.63
2019-04-28T00:51:35.210Z,12.17
2019-04-28T00:54:06.278Z,10.60
2019-04-28T00:56:37.314Z,9.40
2019-04-28T00:59:08.599Z,12.28
2019-04-28T01:01:46.011Z,10.83
2019-04-28T01:04:17.362Z,12.40
2019-04-28T01:06:48.688Z,12.73
2019-04-28T01:09:21.809Z,13.80
2019-04-28T01:11:53.372Z,14.63
2019-04-28T01:14:25.809Z,13.03
2019-04-28T01:17:03.546Z,12.37
2019-04-28T01:19:37.118Z,13.57
2019-04-28T01:22:12.413Z,13.90
2019-04-28T01:24:43.466Z,13.47
2019-04-28T01:27:36.479Z,11.53
2019-04-28T01:30:12.424Z,10.97
2019-04-28T01:32:49.840Z,13.00
2019-04-28T01:35:21.877Z,12.57
2019-04-28T01:37:53.310Z,11.07
2019-04-28T01:40:24.291Z,14.10
2019-04-28T01:42:55.349Z,14.33
2019-04-28T01:45:26.332Z,13.20
2019-04-28T01:48:00.481Z,14.03
2019-04-28T01:50:30.913Z,13.13
2019-04-28T01:53:02.475Z,15.10
2019-04-28T01:55:34.451Z,18.77
2019-04-28T01:58:05.419Z,19.37
2019-04-28T02:00:36.461Z,21.17
2019-04-28T02:03:08.039Z,15.53
2019-04-28T02:05:40.517Z,17.27
2019-04-28T02:08:11.732Z,16.33
2019-04-28T02:10:43.164Z,15.93
2019-04-28T02:13:14.273Z,17.83
2019-04-28T02:15:45.960Z,18.07
2019-04-28T02:18:17.317Z,21.13
2019-04-28T02:20:53.446Z,17.67
2019-04-28T02:23:29.849Z,18.77
2019-04-28T02:26:00.975Z,19.23
2019-04-28T02:28:32.607Z,20.50
2019-04-28T02:31:03.644Z,18.83
2019-04-28T02:33:34.600Z,22.80
2019-04-28T02:36:08.691Z,20.70
2019-04-28T02:38:41.374Z,21.77
2019-04-28T02:41:12.025Z,16.30
2019-04-28T02:43:43.027Z,22.03
2019-04-28T02:46:14.510Z,19.57
2019-04-28T02:48:45.618Z,21.60
2019-04-28T02:51:23.731Z,19.57
2019-04-28T02:53:55.217Z,22.90
2019-04-28T02:56:27.268Z,21.10
2019-04-28T02:59:00.840Z,22.13
2019-04-28T03:01:31.243Z,18.80
2019-04-28T03:04:02.446Z,18.47
2019-04-28T03:06:33.604Z,19.30
2019-04-28T03:09:05.870Z,21.27
2019-04-28T03:11:36.868Z,22.20
2019-04-28T03:14:11.026Z,25.50
2019-04-28T03:16:41.235Z,19.10
2019-04-28T03:19:12.335Z,23.53
2019-04-28T03:21:43.383Z,22.20
2019-04-28T03:24:15.486Z,20.77
2019-04-28T03:26:56.731Z,21.17
2019-04-28T03:29:34.561Z,18.87
2019-04-28T03:32:37.406Z,24.17
2019-04-28T03:34:55.761Z,19.73
2019-04-28T03:37:26.779Z,28.12
2019-04-28T03:40:00.545Z,25.60
2019-04-28T03:42:31.496Z,17.55
2019-04-28T03:45:04.642Z,22.87
2019-04-28T03:47:35.650Z,21.20
2019-04-28T03:50:07.205Z,23.30
2019-04-28T03:52:41.442Z,28.25
2019-04-28T03:55:12.125Z,21.93
2019-04-28T03:57:43.168Z,30.95
2019-04-28T04:00:15.436Z,28.50
2019-04-28T04:02:46.515Z,29.30
2019-04-28T04:05:17.528Z,28.73
2019-04-28T04:07:50.643Z,25.12
2019-04-28T04:10:52.485Z,20.97
2019-04-28T04:13:33.044Z,27.33
2019-04-28T04:16:22.193Z,20.77
2019-04-28T04:18:54.707Z,24.80
2019-04-28T04:21:25.675Z,27.07
2019-04-28T04:23:56.639Z,24.30
2019-04-28T04:26:27.656Z,23.10
2019-04-28T04:29:00.979Z,29.93
2019-04-28T04:31:32.141Z,29.50
2019-04-28T04:34:04.258Z,23.00
2019-04-28T04:36:35.327Z,26.27
2019-04-28T04:39:10.632Z,25.20
2019-04-28T04:41:43.652Z,22.07
2019-04-28T04:44:14.104Z,25.53
2019-04-28T04:46:45.126Z,24.27
2019-04-28T04:49:16.218Z,26.70
2019-04-28T04:51:50.671Z,27.13
2019-04-28T04:54:20.762Z,32.67
2019-04-28T04:56:51.975Z,26.52
2019-04-28T04:59:22.962Z,27.83
2019-04-28T05:02:29.240Z,26.97
2019-04-28T05:05:00.454Z,28.97
2019-04-28T05:07:31.618Z,26.13
2019-04-28T05:10:02.580Z,26.50
2019-04-28T05:12:33.592Z,34.53
2019-04-28T05:15:04.895Z,28.47
2019-04-28T05:17:35.937Z,34.20
2019-04-28T05:20:09.551Z,35.57
2019-04-28T05:22:50.580Z,33.80
2019-04-28T05:25:30.971Z,31.50
2019-04-28T05:28:02.905Z,29.20
2019-04-28T05:30:34.962Z,27.40
2019-04-28T05:33:06.458Z,29.77
2019-04-28T05:35:37.511Z,30.00
2019-04-28T05:38:09.926Z,31.63
2019-04-28T05:40:41.081Z,28.23
2019-04-28T05:43:12.133Z,27.73
2019-04-28T05:45:43.135Z,36.13
2019-04-28T05:48:14.095Z,33.10
2019-04-28T05:51:01.851Z,30.60
2019-04-28T05:53:47.214Z,29.97
2019-04-28T05:56:36.464Z,31.13
2019-04-28T05:59:15.239Z,30.33
2019-04-28T06:02:02.191Z,31.80
2019-04-28T06:04:33.157Z,30.53
2019-04-28T06:07:11.909Z,33.53
2019-04-28T06:09:46.567Z,34.90
2019-04-28T06:12:20.020Z,35.33
2019-04-28T06:14:51.054Z,33.93
2019-04-28T06:17:22.360Z,27.63
2019-04-28T06:19:53.567Z,30.90
2019-04-28T06:22:25.229Z,29.10
2019-04-28T06:24:57.479Z,28.87
2019-04-28T06:27:28.661Z,33.77
2019-04-28T06:29:59.727Z,28.97
2019-04-28T06:32:30.670Z,35.63
2019-04-28T06:35:01.907Z,37.60
2019-04-28T06:37:33.159Z,37.50
2019-04-28T06:40:04.249Z,34.20
2019-04-28T06:42:35.319Z,30.67
2019-04-28T06:45:06.439Z,41.43
2019-04-28T06:47:38.197Z,33.97
2019-04-28T06:50:09.248Z,31.70
2019-04-28T06:52:40.506Z,39.57
2019-04-28T06:55:11.982Z,26.87
2019-04-28T06:57:43.233Z,32.37
2019-04-28T07:00:14.598Z,36.67
2019-04-28T07:02:45.712Z,32.20
2019-04-28T07:05:16.729Z,28.20
2019-04-28T07:07:47.812Z,31.20
2019-04-28T07:10:19.173Z,28.23
2019-04-28T07:12:50.248Z,33.10
2019-04-28T07:15:21.212Z,30.50
2019-04-28T07:17:52.318Z,31.87
2019-04-28T07:20:39.026Z,34.47
2019-04-28T07:23:10.388Z,29.97
2019-04-28T07:25:42.753Z,28.55
2019-04-28T07:28:14.802Z,31.10
2019-04-28T07:30:46.138Z,33.40
2019-04-28T07:33:17.222Z,32.00
2019-04-28T07:35:48.221Z,26.35
2019-04-28T07:38:19.786Z,24.47
2019-04-28T07:40:50.878Z,33.83
2019-04-28T07:43:21.823Z,27.60
2019-04-28T07:45:52.804Z,29.12
2019-04-28T07:48:24.106Z,25.47
2019-04-28T07:50:55.344Z,28.23
2019-04-28T07:53:32.102Z,32.10
2019-04-28T07:56:03.401Z,29.50
2019-04-28T07:58:34.898Z,21.27
2019-04-28T08:01:07.902Z,28.63
2019-04-28T08:03:48.804Z,29.70
2019-04-28T08:06:12.321Z,27.77
2019-04-28T08:08:43.285Z,31.83
2019-04-28T08:11:14.353Z,27.80
2019-04-28T08:13:45.900Z,29.27
2019-04-28T08:16:16.778Z,25.27
2019-04-28T08:18:47.722Z,31.57
2019-04-28T08:21:18.770Z,38.87
2019-04-28T08:23:50.604Z,39.67
2019-04-28T08:26:21.700Z,23.12
2019-04-28T08:28:54.245Z,29.20
2019-04-28T08:31:29.407Z,28.67
2019-04-28T08:34:03.487Z,27.40
2019-04-28T08:36:34.524Z,25.23
2019-04-28T08:39:07.110Z,25.80
2019-04-28T08:41:38.315Z,27.80
2019-04-28T08:44:09.710Z,21.10
2019-04-28T08:46:41.015Z,30.77
2019-04-28T08:49:12.304Z,24.90
2019-04-28T08:51:44.444Z,26.27
2019-04-28T08:54:15.927Z,27.60
2019-04-28T08:56:47.684Z,23.43
2019-04-28T08:59:18.656Z,23.60
2019-04-28T09:01:49.695Z,33.37
2019-04-28T09:04:20.681Z,25.23
2019-04-28T09:06:52.152Z,31.00
2019-04-28T09:09:23.611Z,23.47
2019-04-28T09:11:55.168Z,24.18
2019-04-28T09:14:26.531Z,20.13
2019-04-28T09:16:57.500Z,25.60
2019-04-28T09:19:29.311Z,13.67
2019-04-28T09:22:00.308Z,13.07
2019-04-28T09:24:31.645Z,13.90
2019-04-28T09:27:02.564Z,16.25
2019-04-28T09:29:33.634Z,16.07
2019-04-28T09:32:04.776Z,12.93
2019-04-28T09:34:35.821Z,15.97
2019-04-28T09:37:07.199Z,13.93
2019-04-28T09:40:01.114Z,20.37
2019-04-28T09:42:51.390Z,21.63
2019-04-28T09:45:25.061Z,17.85
2019-04-28T09:47:56.127Z,22.27
2019-04-28T09:50:27.221Z,23.53
2019-04-28T09:52:58.193Z,19.70
2019-04-28T09:55:29.181Z,21.77
2019-04-28T09:58:00.176Z,23.65
2019-04-28T10:00:31.129Z,32.85
2019-04-28T10:03:02.235Z,21.60
2019-04-28T10:05:33.259Z,24.47
2019-04-28T10:08:04.671Z,18.97
2019-04-28T10:10:35.781Z,22.10
2019-04-28T10:13:07.086Z,33.40
2019-04-28T10:15:38.512Z,22.50
2019-04-28T10:18:09.847Z,18.80
2019-04-28T10:20:42.154Z,34.63
2019-04-28T10:23:13.422Z,23.70
2019-04-28T10:25:44.918Z,25.20
2019-04-28T10:28:16.751Z,22.70
2019-04-28T10:30:48.211Z,19.97
2019-04-28T10:33:19.242Z,20.47
2019-04-28T10:35:50.555Z,16.90
2019-04-28T10:38:21.506Z,21.30
2019-04-28T10:41:03.523Z,19.47
2019-04-28T10:43:34.553Z,13.03
2019-04-28T10:46:05.817Z,21.53
2019-04-28T10:48:37.183Z,13.87
2019-04-28T10:51:08.275Z,24.43
2019-04-28T10:53:39.573Z,22.87
2019-04-28T10:56:10.611Z,19.00
2019-04-28T10:58:44.045Z,17.53
2019-04-28T11:01:15.842Z,18.53
2019-04-28T11:03:49.895Z,16.80
2019-04-28T11:06:21.216Z,16.53
2019-04-28T11:09:11.279Z,14.47
2019-04-28T11:11:42.585Z,13.47
2019-04-28T11:14:14.314Z,17.13
2019-04-28T11:16:45.458Z,16.83
2019-04-28T11:19:16.629Z,17.10
2019-04-28T11:21:47.762Z,19.75
2019-04-28T11:24:18.769Z,21.07
2019-04-28T11:26:49.841Z,17.87
2019-04-28T11:29:21.228Z,17.30
2019-04-28T11:31:53.515Z,16.93
2019-04-28T11:34:31.464Z,19.57
2019-04-28T11:37:02.561Z,17.30
2019-04-28T11:39:36.388Z,19.27
2019-04-28T11:42:07.609Z,15.13
2019-04-28T11:44:38.652Z,21.30
2019-04-28T11:47:12.491Z,10.23
2019-04-28T11:49:45.037Z,17.20
2019-04-28T11:52:16.441Z,12.63
2019-04-28T11:54:47.782Z,13.50
2019-04-28T11:57:19.385Z,14.43
2019-04-28T11:59:50.805Z,16.87
2019-04-28T12:02:21.789Z,12.37
2019-04-28T12:04:54.719Z,16.23
2019-04-28T12:07:26.892Z,17.30
2019-04-28T12:10:05.905Z,14.18
2019-04-28T12:12:44.890Z,11.43
2019-04-28T12:15:43.554Z,11.87
2019-04-28T12:18:33.559Z,9.97
2019-04-28T12:21:04.866Z,13.97
2019-04-28T12:23:35.864Z,9.40
2019-04-28T12:26:07.900Z,8.03
2019-04-28T12:28:39.203Z,6.60
2019-04-28T12:31:10.260Z,3.87
2019-04-28T12:33:42.510Z,5.40
2019-04-28T12:36:13.763Z,5.67
2019-04-28T12:38:44.699Z,9.30
2019-04-28T12:41:16.056Z,4.67
2019-04-28T12:43:47.380Z,3.57
2019-04-28T12:46:18.733Z,6.13
2019-04-28T12:48:53.931Z,4.67
2019-04-28T12:51:25.100Z,3.70
2019-04-28T12:54:00.299Z,4.37
2019-04-28T12:56:31.825Z,4.83
2019-04-28T12:59:10.180Z,6.17
2019-04-28T13:01:50.801Z,4.60
2019-04-28T13:04:35.468Z,6.93
2019-04-28T13:07:08.456Z,6.33
2019-04-28T13:09:39.492Z,6.45
2019-04-28T13:12:10.562Z,13.30
2019-04-28T13:14:41.494Z,3.97
2019-04-28T13:17:12.567Z,6.27
2019-04-28T13:19:43.911Z,6.97
2019-04-28T13:22:14.964Z,7.70
2019-04-28T13:24:46.914Z,9.77
2019-04-28T13:27:17.963Z,7.83
2019-04-28T13:29:49.104Z,6.17
2019-04-28T13:32:20.643Z,11.63
2019-04-28T13:34:52.104Z,7.90
2019-04-28T13:37:23.678Z,11.20
2019-04-28T13:39:58.867Z,9.10
2019-04-28T13:42:29.871Z,8.30
2019-04-28T13:45:05.812Z,8.18
2019-04-28T13:47:37.607Z,11.23
2019-04-28T13:50:17.476Z,7.73
2019-04-28T13:52:49.486Z,8.63
2019-04-28T13:55:38.293Z,4.77
2019-04-28T13:58:09.365Z,8.23
2019-04-28T14:01:01.861Z,4.87
2019-04-28T14:04:04.251Z,12.57
2019-04-28T14:06:39.127Z,7.35
2019-04-28T14:09:16.293Z,6.73
2019-04-28T14:11:47.451Z,7.07
2019-04-28T14:14:18.772Z,9.73
2019-04-28T14:16:50.146Z,8.60
2019-04-28T14:19:21.149Z,10.60
2019-04-28T14:21:52.313Z,7.43
2019-04-28T14:24:23.414Z,5.73
2019-04-28T14:26:54.930Z,5.03
2019-04-28T14:29:27.053Z,4.97
2019-04-28T14:31:58.281Z,9.55
2019-04-28T14:34:29.767Z,6.42
2019-04-28T14:37:01.101Z,10.37
2019-04-28T14:39:32.337Z,8.28
2019-04-28T14:42:03.918Z,5.97
2019-04-28T14:44:35.265Z,6.08
2019-04-28T14:47:07.116Z,7.05
2019-04-28T14:49:38.180Z,4.35
2019-04-28T14:52:09.924Z,7.07
2019-04-28T14:54:41.719Z,7.90
2019-04-28T14:57:12.862Z,4.87
2019-04-28T14:59:44.460Z,7.33
2019-04-28T15:02:25.308Z,7.27
2019-04-28T15:05:30.711Z,4.43
2019-04-28T15:08:16.028Z,8.50
2019-04-28T15:10:59.445Z,9.63
2019-04-28T15:13:30.538Z,6.73
2019-04-28T15:16:01.990Z,6.78
2019-04-28T15:18:33.438Z,4.83
2019-04-28T15:21:04.531Z,5.93
2019-04-28T15:23:36.048Z,9.07
2019-04-28T15:26:07.814Z,6.07
2019-04-28T15:28:39.117Z,7.80
2019-04-28T15:31:10.074Z,5.10
2019-04-28T15:33:41.367Z,7.77
2019-04-28T15:36:13.111Z,8.10
2019-04-28T15:38:44.349Z,12.10
2019-04-28T15:41:21.776Z,6.72
2019-04-28T15:43:48.819Z,7.23
2019-04-28T15:46:20.648Z,5.60
2019-04-28T15:48:51.916Z,12.57
2019-04-28T15:51:23.274Z,5.10
2019-04-28T15:53:54.259Z,7.57
2019-04-28T15:56:40.122Z,6.03
2019-04-28T15:59:11.615Z,9.00
2019-04-28T16:01:42.800Z,6.30
2019-04-28T16:04:13.761Z,6.27
2019-04-28T16:06:44.947Z,3.87
2019-04-28T16:09:16.408Z,9.23
2019-04-28T16:11:47.494Z,5.30
2019-04-28T16:14:18.581Z,14.93
2019-04-28T16:16:50.765Z,4.77
2019-04-28T16:19:22.354Z,4.08
2019-04-28T16:21:53.727Z,8.23
2019-04-28T16:24:24.832Z,4.73
2019-04-28T16:26:55.920Z,7.73
2019-04-28T16:29:26.868Z,9.00
2019-04-28T16:31:58.577Z,10.00
2019-04-28T16:34:29.589Z,9.53
2019-04-28T16:37:01.030Z,10.55
2019-04-28T16:39:32.268Z,5.83
2019-04-28T16:42:09.665Z,8.07
2019-04-28T16:44:45.851Z,7.20
2019-04-28T16:47:17.595Z,4.90
2019-04-28T16:49:48.562Z,7.47
2019-04-28T16:52:22.658Z,7.60
2019-04-28T16:55:12.694Z,5.73
2019-04-28T16:57:51.406Z,5.37
2019-04-28T17:00:48.093Z,5.23
2019-04-28T17:03:19.344Z,4.80
2019-04-28T17:05:50.993Z,7.67
2019-04-28T17:08:57.854Z,7.47
2019-04-28T17:11:28.927Z,6.03
2019-04-28T17:14:01.387Z,7.20
2019-04-28T17:16:32.752Z,6.87
2019-04-28T17:19:05.775Z,9.88
2019-04-28T17:21:37.275Z,5.47
2019-04-28T17:24:08.261Z,5.10
2019-04-28T17:26:39.403Z,9.43
2019-04-28T17:29:10.579Z,2.80
2019-04-28T17:31:41.755Z,7.37
2019-04-28T17:34:13.929Z,9.90
2019-04-28T17:36:45.599Z,8.57
2019-04-28T17:39:22.187Z,5.80
2019-04-28T17:41:53.637Z,6.17
2019-04-28T17:44:26.161Z,8.60
2019-04-28T17:46:57.190Z,9.27
2019-04-28T17:49:33.563Z,12.13
2019-04-28T17:52:06.306Z,9.87
2019-04-28T17:54:39.490Z,14.25
2019-04-28T17:57:10.754Z,8.63
2019-04-28T17:59:42.379Z,7.80
2019-04-28T18:02:32.473Z,8.33
2019-04-28T18:05:31.848Z,9.23
2019-04-28T18:08:04.769Z,6.73
2019-04-28T18:10:37.295Z,10.13
2019-04-28T18:13:08.581Z,5.87
2019-04-28T18:15:57.498Z,9.90
2019-04-28T18:18:47.906Z,8.23
2019-04-28T18:21:20.405Z,6.80
2019-04-28T18:23:52.423Z,7.43
2019-04-28T18:26:24.721Z,7.47
2019-04-28T18:28:55.798Z,10.30
2019-04-28T18:31:40.479Z,8.23
2019-04-28T18:34:31.533Z,10.97
2019-04-28T18:37:19.241Z,6.70
2019-04-28T18:40:07.808Z,9.60
2019-04-28T18:42:44.244Z,9.10
2019-04-28T18:45:17.059Z,11.10
2019-04-28T18:47:48.521Z,12.10
2019-04-28T18:50:19.766Z,14.27
2019-04-28T18:52:51.308Z,10.80
2019-04-28T18:55:31.690Z,10.83
2019-04-28T18:58:06.321Z,11.30
2019-04-28T19:00:40.160Z,10.03
2019-04-28T19:03:12.309Z,15.77
2019-04-28T19:05:45.171Z,8.20
2019-04-28T19:08:48.145Z,9.23
2019-04-28T19:11:32.462Z,4.83
2019-04-28T19:14:12.707Z,5.87
2019-04-28T19:17:09.106Z,8.43
2019-04-28T19:19:41.054Z,10.70
2019-04-28T19:22:12.138Z,9.67
2019-04-28T19:24:43.229Z,5.63
2019-04-28T19:27:14.343Z,13.33
2019-04-28T19:29:45.586Z,4.80
2019-04-28T19:32:18.536Z,12.37
2019-04-28T19:34:50.262Z,12.00
2019-04-28T19:37:21.479Z,14.03
2019-04-28T19:39:52.727Z,34.07
2019-04-28T19:42:24.297Z,15.30
2019-04-28T19:44:56.106Z,15.85
2019-04-28T19:47:27.343Z,11.37
2019-04-28T19:50:00.354Z,13.27
2019-04-28T19:52:32.127Z,10.72
2019-04-28T19:55:15.495Z,10.47
2019-04-28T19:57:51.928Z,8.97
2019-04-28T20:00:26.878Z,16.00
2019-04-28T20:02:58.367Z,10.37
2019-04-28T20:05:29.685Z,12.50
2019-04-28T20:08:01.522Z,6.78
2019-04-28T20:10:32.819Z,10.30
2019-04-28T20:13:03.905Z,13.63
2019-04-28T20:15:34.928Z,10.53
2019-04-28T20:18:06.142Z,16.90
2019-04-28T20:20:38.058Z,15.33
2019-04-28T20:23:09.119Z,6.67
2019-04-28T20:25:40.586Z,6.60
2019-04-28T20:28:11.992Z,10.03
2019-04-28T20:30:43.129Z,9.23
2019-04-28T20:33:14.323Z,10.77
2019-04-28T20:35:53.843Z,10.57
2019-04-28T20:38:30.856Z,14.77
2019-04-28T20:41:18.065Z,9.05
2019-04-28T20:43:49.045Z,9.83
2019-04-28T20:46:20.347Z,5.80
2019-04-28T20:48:52.149Z,7.80
2019-04-28T20:51:23.214Z,10.97
2019-04-28T20:53:54.172Z,9.60
2019-04-28T20:56:25.868Z,6.50
2019-04-28T20:58:57.481Z,8.77
2019-04-28T21:01:28.574Z,11.63
2019-04-28T21:03:59.908Z,9.70
2019-04-28T21:06:31.187Z,10.37
2019-04-28T21:09:02.680Z,8.20
2019-04-28T21:11:35.332Z,13.62
2019-04-28T21:14:06.368Z,10.17
2019-04-28T21:16:37.393Z,36.30
2019-04-28T21:19:08.380Z,13.10
2019-04-28T21:21:39.332Z,10.10
2019-04-28T21:24:10.542Z,16.52
2019-04-28T21:26:42.932Z,12.20
2019-04-28T21:29:14.156Z,10.95
2019-04-28T21:31:45.189Z,15.53
2019-04-28T21:34:16.410Z,15.07
2019-04-28T21:36:47.519Z,14.50
2019-04-28T21:39:18.623Z,7.60
2019-04-28T21:41:50.300Z,19.83
2019-04-28T21:44:37.573Z,12.57
2019-04-28T21:47:27.898Z,11.48
2019-04-28T21:49:59.170Z,11.60
2019-04-28T21:52:30.199Z,16.07
2019-04-28T21:55:01.194Z,13.90
2019-04-28T21:57:32.670Z,14.63
2019-04-28T22:00:05.141Z,12.77
2019-04-28T22:02:35.431Z,11.22
2019-04-28T22:05:06.558Z,11.53
2019-04-28T22:07:37.912Z,13.20
2019-04-28T22:10:09.073Z,12.23
2019-04-28T22:12:40.046Z,15.30
2019-04-28T22:15:11.543Z,10.73
2019-04-28T22:17:42.583Z,9.68
2019-04-28T22:20:13.623Z,16.20
2019-04-28T22:22:44.667Z,14.67
2019-04-28T22:25:20.775Z,17.07
2019-04-28T22:27:51.718Z,9.98
2019-04-28T22:30:23.291Z,11.57
2019-04-28T22:32:54.673Z,11.57
2019-04-28T22:35:26.324Z,10.77
2019-04-28T22:37:57.308Z,11.27
2019-04-28T22:40:28.375Z,8.70
2019-04-28T22:42:59.678Z,10.73
2019-04-28T22:45:31.709Z,10.88
2019-04-28T22:48:03.469Z,9.93
2019-04-28T22:50:47.953Z,9.03
2019-04-28T22:53:21.274Z,11.83
2019-04-28T22:55:58.787Z,14.10
2019-04-28T22:58:39.954Z,12.33
2019-04-28T23:01:18.445Z,17.02
2019-04-28T23:04:01.929Z,11.23
2019-04-28T23:06:32.985Z,12.40
2019-04-28T23:09:04.187Z,10.10
2019-04-28T23:11:36.822Z,12.68
2019-04-28T23:14:07.803Z,17.10
2019-04-28T23:16:39.174Z,11.00
2019-04-28T23:19:12.431Z,9.05
2019-04-28T23:21:58.891Z,8.67
2019-04-28T23:24:30.327Z,11.07
2019-04-28T23:27:01.567Z,15.33
2019-04-28T23:29:33.152Z,16.30
2019-04-28T23:32:04.340Z,12.03
2019-04-28T23:34:36.251Z,11.10
2019-04-28T23:37:07.620Z,12.60
2019-04-28T23:39:38.673Z,14.30
2019-04-28T23:42:16.516Z,12.27
2019-04-28T23:44:47.553Z,15.13
2019-04-28T23:47:18.853Z,15.47
2019-04-28T23:49:49.904Z,11.67
2019-04-28T23:52:48.769Z,18.02
2019-04-28T23:55:22.931Z,13.30
2019-04-28T23:57:53.929Z,17.07
